Los Pinas, Colorado
Current Conditions -  °F | °C
As of 10:52 AM on Friday 24 Oct 2014 (Local Time) from KALS Reporting Station
Clear Clear  
Wind Chill: 52°   Ceiling: Unl
Heat Index: 52°   Visibility: 10mi
Dew Point: 31°   Wind: 3mph
Humidity: 45%   Direction: 170°S
Pressure: 30.44"   Gusts: NA
Location:  37.1816°N, 106.262°W
Report Text: KALS 241652Z AUTO 17003KT 10SM CLR 11/M01 A3044 RMK AO2 SLP273 T01111006
Loading
Personal Weather Stations






























Interactive Weather Map
Tropical Storm Tracking
New forecast layout! Learn more

10-Day Weather Forecast

Advertisements
Track Severe Weather on mobile